createdAt,value
2022-08-16T00:00:20.134Z,974.08
2022-08-16T00:01:12.778Z,974.05
2022-08-16T00:02:12.936Z,974.05
2022-08-16T00:03:13.719Z,974.03
2022-08-16T00:04:11.716Z,974.05
2022-08-16T00:05:11.687Z,974.09
2022-08-16T00:06:12.464Z,974.05
2022-08-16T00:07:11.656Z,974.04
2022-08-16T00:08:11.647Z,974.06
2022-08-16T00:09:12.645Z,974.06
2022-08-16T00:10:20.656Z,974.07
2022-08-16T00:11:15.794Z,974.04
2022-08-16T00:12:11.725Z,974.07
2022-08-16T00:13:12.584Z,974.07
2022-08-16T00:14:11.585Z,974.05
2022-08-16T00:15:12.008Z,974.11
2022-08-16T00:17:06.215Z,974.07
2022-08-16T00:17:18.979Z,974.09
2022-08-16T00:18:12.536Z,974.07
2022-08-16T00:19:13.667Z,974.07
2022-08-16T00:20:12.308Z,974.10
2022-08-16T00:21:11.887Z,974.11
2022-08-16T00:22:13.643Z,974.15
2022-08-16T00:23:11.467Z,974.14
2022-08-16T00:24:12.236Z,974.16
2022-08-16T00:25:11.446Z,974.22
2022-08-16T00:26:35.797Z,974.26
2022-08-16T00:27:12.427Z,974.28
2022-08-16T00:28:11.447Z,974.30
2022-08-16T00:29:11.407Z,974.30
2022-08-16T00:30:19.344Z,974.32
2022-08-16T00:31:12.387Z,974.27
2022-08-16T00:32:11.388Z,974.30
2022-08-16T00:33:12.356Z,974.33
2022-08-16T00:34:18.463Z,974.29
2022-08-16T00:35:15.696Z,974.36
2022-08-16T00:36:11.327Z,974.32
2022-08-16T00:37:11.897Z,974.37
2022-08-16T00:38:43.287Z,974.35
2022-08-16T00:39:15.539Z,974.41
2022-08-16T00:40:33.488Z,974.40
2022-08-16T00:41:12.267Z,974.38
2022-08-16T00:42:12.087Z,974.45
2022-08-16T00:43:12.227Z,974.44
2022-08-16T00:44:12.236Z,974.42
2022-08-16T00:45:11.789Z,974.43
2022-08-16T00:46:22.456Z,974.43
2022-08-16T00:47:12.205Z,974.39
2022-08-16T00:48:30.557Z,974.40
2022-08-16T00:49:17.292Z,974.42
2022-08-16T00:50:12.966Z,974.42
2022-08-16T00:51:11.176Z,974.48
2022-08-16T00:52:29.700Z,974.45
2022-08-16T00:53:12.139Z,974.40
2022-08-16T00:54:11.641Z,974.41
2022-08-16T00:55:11.883Z,974.41
2022-08-16T00:56:11.875Z,974.38
2022-08-16T00:57:12.097Z,974.40
2022-08-16T00:58:12.920Z,974.37
2022-08-16T00:59:11.983Z,974.35
2022-08-16T01:00:11.076Z,974.38
2022-08-16T01:01:12.843Z,974.37
2022-08-16T01:02:30.769Z,974.37
2022-08-16T01:03:12.773Z,974.36
2022-08-16T01:04:29.392Z,974.33
2022-08-16T01:05:12.199Z,974.33
2022-08-16T01:06:39.984Z,974.36
2022-08-16T01:07:11.978Z,974.34
2022-08-16T01:08:36.071Z,974.36
2022-08-16T01:09:11.958Z,974.38
2022-08-16T01:10:16.121Z,974.33
2022-08-16T01:11:11.936Z,974.31
2022-08-16T01:12:11.507Z,974.36
2022-08-16T01:13:15.034Z,974.37
2022-08-16T01:14:11.827Z,974.34
2022-08-16T01:15:11.126Z,974.30
2022-08-16T01:16:10.868Z,974.35
2022-08-16T01:17:10.890Z,974.27
2022-08-16T01:18:39.781Z,974.30
2022-08-16T01:19:11.847Z,974.30
2022-08-16T01:20:24.022Z,974.29
2022-08-16T01:21:11.825Z,974.29
2022-08-16T01:22:47.021Z,974.28
2022-08-16T01:23:11.831Z,974.32
2022-08-16T01:24:52.397Z,974.34
2022-08-16T01:25:13.731Z,974.30
2022-08-16T01:26:34.243Z,974.28
2022-08-16T01:27:11.757Z,974.28
2022-08-16T01:28:10.747Z,974.25
2022-08-16T01:29:12.546Z,974.25
2022-08-16T01:30:19.353Z,974.26
2022-08-16T01:31:11.707Z,974.28
2022-08-16T01:32:11.028Z,974.23
2022-08-16T01:33:14.784Z,974.26
2022-08-16T01:34:22.690Z,974.24
2022-08-16T01:35:16.970Z,974.28
2022-08-16T01:36:12.960Z,974.22
2022-08-16T01:37:10.648Z,974.24
2022-08-16T01:38:10.879Z,974.24
2022-08-16T01:39:11.883Z,974.26
2022-08-16T01:40:10.885Z,974.23
2022-08-16T01:41:10.609Z,974.28
2022-08-16T01:42:12.937Z,974.26
2022-08-16T01:43:11.338Z,974.21
2022-08-16T01:44:10.571Z,974.26
2022-08-16T01:45:11.118Z,974.25
2022-08-16T01:46:37.642Z,974.28
2022-08-16T01:47:11.548Z,974.27
2022-08-16T01:48:19.514Z,974.22
2022-08-16T01:49:11.517Z,974.30
2022-08-16T01:50:41.966Z,974.26
2022-08-16T01:51:16.758Z,974.26
2022-08-16T01:52:28.090Z,974.27
2022-08-16T01:53:11.888Z,974.29
2022-08-16T01:54:10.567Z,974.32
2022-08-16T01:55:10.450Z,974.34
2022-08-16T01:56:22.059Z,974.32
2022-08-16T01:57:11.618Z,974.33
2022-08-16T01:58:12.300Z,974.30
2022-08-16T01:59:15.641Z,974.31
2022-08-16T02:00:19.347Z,974.28
2022-08-16T02:01:11.447Z,974.29
2022-08-16T02:02:26.608Z,974.27
2022-08-16T02:03:12.595Z,974.30
2022-08-16T02:04:11.791Z,974.22
2022-08-16T02:05:10.439Z,974.30
2022-08-16T02:06:10.438Z,974.29
2022-08-16T02:07:11.366Z,974.29
2022-08-16T02:08:33.306Z,974.27
2022-08-16T02:09:12.041Z,974.30
2022-08-16T02:10:10.298Z,974.24
2022-08-16T02:11:10.290Z,974.21
2022-08-16T02:12:49.559Z,974.21
2022-08-16T02:13:11.258Z,974.19
2022-08-16T02:14:18.482Z,974.20
2022-08-16T02:15:11.237Z,974.19
2022-08-16T02:16:18.395Z,974.22
2022-08-16T02:17:11.233Z,974.18
2022-08-16T02:18:12.631Z,974.19
2022-08-16T02:19:15.915Z,974.21
2022-08-16T02:20:11.784Z,974.15
2022-08-16T02:21:11.018Z,974.16
2022-08-16T02:22:34.072Z,974.10
2022-08-16T02:23:11.186Z,974.10
2022-08-16T02:24:31.470Z,974.10
2022-08-16T02:25:11.516Z,974.10
2022-08-16T02:26:10.117Z,974.06
2022-08-16T02:27:11.979Z,974.11
2022-08-16T02:28:10.116Z,974.10
2022-08-16T02:29:12.889Z,974.09
2022-08-16T02:30:10.089Z,974.10
2022-08-16T02:31:11.099Z,974.11
2022-08-16T02:32:49.017Z,974.10
2022-08-16T02:33:11.091Z,974.14
2022-08-16T02:34:10.028Z,974.11
2022-08-16T02:35:10.019Z,974.12
2022-08-16T02:36:14.405Z,974.12
2022-08-16T02:37:11.010Z,974.08
2022-08-16T02:38:09.989Z,974.11
2022-08-16T02:39:09.989Z,974.05
2022-08-16T02:40:09.959Z,974.07
2022-08-16T02:41:09.989Z,974.07
2022-08-16T02:42:09.919Z,974.10
2022-08-16T02:43:09.940Z,974.08
2022-08-16T02:44:09.919Z,974.09
2022-08-16T02:45:10.626Z,974.10
2022-08-16T02:46:09.883Z,974.10
2022-08-16T02:47:09.881Z,974.12
2022-08-16T02:48:29.262Z,974.09
2022-08-16T02:49:11.659Z,974.08
2022-08-16T02:50:54.152Z,974.10
2022-08-16T02:51:12.810Z,974.09
2022-08-16T02:52:09.819Z,974.08
2022-08-16T02:53:10.819Z,974.10
2022-08-16T02:54:09.800Z,974.09
2022-08-16T02:55:09.810Z,974.09
2022-08-16T02:56:10.047Z,974.09
2022-08-16T02:57:09.768Z,974.13
2022-08-16T02:58:09.749Z,974.13
2022-08-16T02:59:11.723Z,974.09
2022-08-16T03:00:33.632Z,974.10
2022-08-16T03:01:13.915Z,974.08
2022-08-16T03:02:10.844Z,974.06
2022-08-16T03:03:10.369Z,974.04
2022-08-16T03:04:41.036Z,974.07
2022-08-16T03:05:10.940Z,974.05
2022-08-16T03:06:41.960Z,974.05
2022-08-16T03:07:10.659Z,974.00
2022-08-16T03:08:50.589Z,974.01
2022-08-16T03:09:14.931Z,974.02
2022-08-16T03:10:09.619Z,973.99
2022-08-16T03:11:16.487Z,974.03
2022-08-16T03:12:11.089Z,974.03
2022-08-16T03:13:12.233Z,974.00
2022-08-16T03:14:09.599Z,974.02
2022-08-16T03:15:09.579Z,974.06
2022-08-16T03:16:32.679Z,974.04
2022-08-16T03:17:10.559Z,974.07
2022-08-16T03:18:12.523Z,974.05
2022-08-16T03:19:10.535Z,974.01
2022-08-16T03:20:09.509Z,974.05
2022-08-16T03:21:10.158Z,974.02
2022-08-16T03:22:09.629Z,974.05
2022-08-16T03:23:09.500Z,974.05
2022-08-16T03:24:28.130Z,974.01
2022-08-16T03:25:10.468Z,974.02
2022-08-16T03:26:09.441Z,974.02
2022-08-16T03:27:09.660Z,974.00
2022-08-16T03:28:09.429Z,974.08
2022-08-16T03:29:09.420Z,974.04
2022-08-16T03:30:16.692Z,974.03
2022-08-16T03:31:10.399Z,974.00
2022-08-16T03:32:09.390Z,974.03
2022-08-16T03:33:09.699Z,974.01
2022-08-16T03:34:09.369Z,973.97
2022-08-16T03:35:09.381Z,974.01
2022-08-16T03:36:31.031Z,974.00
2022-08-16T03:37:10.400Z,973.97
2022-08-16T03:38:33.563Z,973.99
2022-08-16T03:39:10.709Z,973.99
2022-08-16T03:40:09.339Z,974.04
2022-08-16T03:41:24.207Z,974.06
2022-08-16T03:42:10.680Z,974.05
2022-08-16T03:43:20.049Z,974.07
2022-08-16T03:44:10.700Z,974.08
2022-08-16T03:45:09.478Z,974.06
2022-08-16T03:46:09.478Z,974.10
2022-08-16T03:47:10.414Z,974.13
2022-08-16T03:48:09.200Z,974.16
2022-08-16T03:49:10.320Z,974.12
2022-08-16T03:50:25.982Z,974.14
2022-08-16T03:51:12.403Z,974.14
2022-08-16T03:52:09.160Z,974.13
2022-08-16T03:53:09.169Z,974.15
2022-08-16T03:54:12.423Z,974.16
2022-08-16T03:55:10.582Z,974.19
2022-08-16T03:56:19.525Z,974.15
2022-08-16T03:57:11.527Z,974.13
2022-08-16T03:58:10.100Z,974.16
2022-08-16T03:59:09.110Z,974.16
2022-08-16T04:00:09.100Z,974.15
2022-08-16T04:01:09.182Z,974.16
2022-08-16T04:02:12.181Z,974.20
2022-08-16T04:03:10.057Z,974.18
2022-08-16T04:04:09.036Z,974.17
2022-08-16T04:05:09.042Z,974.18
2022-08-16T04:06:09.030Z,974.19
2022-08-16T04:07:09.803Z,974.16
2022-08-16T04:08:23.291Z,974.19
2022-08-16T04:09:12.450Z,974.21
2022-08-16T04:10:35.982Z,974.18
2022-08-16T04:11:10.000Z,974.19
2022-08-16T04:12:10.725Z,974.26
2022-08-16T04:13:20.786Z,974.24
2022-08-16T04:14:32.856Z,974.24
2022-08-16T04:15:10.241Z,974.24
2022-08-16T04:16:09.035Z,974.24
2022-08-16T04:17:08.910Z,974.26
2022-08-16T04:18:08.880Z,974.25
2022-08-16T04:19:09.671Z,974.27
2022-08-16T04:20:23.869Z,974.25
2022-08-16T04:21:09.869Z,974.24
2022-08-16T04:22:09.026Z,974.30
2022-08-16T04:23:08.852Z,974.28
2022-08-16T04:24:08.820Z,974.34
2022-08-16T04:25:08.831Z,974.33
2022-08-16T04:26:16.771Z,974.36
2022-08-16T04:27:09.804Z,974.38
2022-08-16T04:28:51.709Z,974.36
2022-08-16T04:29:14.643Z,974.39
2022-08-16T04:30:11.030Z,974.34
2022-08-16T04:31:10.768Z,974.36
2022-08-16T04:32:08.730Z,974.36
2022-08-16T04:33:08.750Z,974.36
2022-08-16T04:34:08.719Z,974.36
2022-08-16T04:35:13.775Z,974.38
2022-08-16T04:36:09.711Z,974.36
2022-08-16T04:37:10.517Z,974.38
2022-08-16T04:38:11.042Z,974.38
2022-08-16T04:39:09.670Z,974.38
2022-08-16T04:40:09.674Z,974.41
2022-08-16T04:41:08.660Z,974.37
2022-08-16T04:42:10.950Z,974.43
2022-08-16T04:43:08.630Z,974.44
2022-08-16T04:44:32.356Z,974.40
2022-08-16T04:45:09.610Z,974.42
2022-08-16T04:46:30.732Z,974.41
2022-08-16T04:47:23.936Z,974.40
2022-08-16T04:48:09.562Z,974.44
2022-08-16T04:49:08.580Z,974.44
2022-08-16T04:50:08.678Z,974.44
2022-08-16T04:51:12.304Z,974.43
2022-08-16T04:52:34.213Z,974.42
2022-08-16T04:53:09.521Z,974.41
2022-08-16T04:54:08.501Z,974.42
2022-08-16T04:55:08.522Z,974.41
2022-08-16T04:56:11.640Z,974.46
2022-08-16T04:57:08.481Z,974.48
2022-08-16T04:58:38.108Z,974.48
2022-08-16T04:59:09.459Z,974.52
2022-08-16T05:00:30.480Z,974.47
2022-08-16T05:01:09.421Z,974.50
2022-08-16T05:02:41.072Z,974.49
2022-08-16T05:03:09.459Z,974.51
2022-08-16T05:04:19.708Z,974.44
2022-08-16T05:05:09.392Z,974.47
2022-08-16T05:06:09.495Z,974.48
2022-08-16T05:07:10.987Z,974.51
2022-08-16T05:08:28.870Z,974.50
2022-08-16T05:09:09.339Z,974.53
2022-08-16T05:10:19.564Z,974.54
2022-08-16T05:11:09.323Z,974.51
2022-08-16T05:12:08.727Z,974.51
2022-08-16T05:13:08.296Z,974.52
2022-08-16T05:14:09.300Z,974.53
2022-08-16T05:15:08.845Z,974.52
2022-08-16T05:16:08.285Z,974.55
2022-08-16T05:17:08.275Z,974.54
2022-08-16T05:18:08.261Z,974.53
2022-08-16T05:19:11.582Z,974.57
2022-08-16T05:20:39.100Z,974.60
2022-08-16T05:21:11.190Z,974.57
2022-08-16T05:22:08.220Z,974.63
2022-08-16T05:23:09.200Z,974.59
2022-08-16T05:24:09.193Z,974.59
2022-08-16T05:25:08.767Z,974.61
2022-08-16T05:26:19.518Z,974.60
2022-08-16T05:27:11.172Z,974.63
2022-08-16T05:28:08.230Z,974.59
2022-08-16T05:29:11.130Z,974.65
2022-08-16T05:30:35.719Z,974.60
2022-08-16T05:31:09.106Z,974.66
2022-08-16T05:32:32.972Z,974.69
2022-08-16T05:33:09.129Z,974.69
2022-08-16T05:34:19.663Z,974.71
2022-08-16T05:35:10.894Z,974.68
2022-08-16T05:36:14.083Z,974.71
2022-08-16T05:37:09.022Z,974.71
2022-08-16T05:38:32.516Z,974.71
2022-08-16T05:39:09.602Z,974.69
2022-08-16T05:40:08.142Z,974.66
2022-08-16T05:41:09.467Z,974.69
2022-08-16T05:42:07.983Z,974.70
2022-08-16T05:43:07.961Z,974.73
2022-08-16T05:44:23.393Z,974.71
2022-08-16T05:45:08.941Z,974.72
2022-08-16T05:46:28.686Z,974.72
2022-08-16T05:47:08.922Z,974.76
2022-08-16T05:48:08.920Z,974.67
2022-08-16T05:49:09.750Z,974.71
2022-08-16T05:50:08.006Z,974.72
2022-08-16T05:51:08.871Z,974.72
2022-08-16T05:52:11.241Z,974.75
2022-08-16T05:53:07.853Z,974.77
2022-08-16T05:54:07.852Z,974.79
2022-08-16T05:55:07.821Z,974.76
2022-08-16T05:56:07.831Z,974.82
2022-08-16T05:57:07.842Z,974.88
2022-08-16T05:58:08.801Z,974.83
2022-08-16T05:59:08.783Z,974.88
2022-08-16T06:00:09.338Z,974.86
2022-08-16T06:01:08.386Z,974.88
2022-08-16T06:02:07.796Z,974.80
2022-08-16T06:03:08.151Z,974.81
2022-08-16T06:04:12.748Z,974.83
2022-08-16T06:05:07.721Z,974.84
2022-08-16T06:06:08.573Z,974.87
2022-08-16T06:07:08.794Z,974.89
2022-08-16T06:08:07.881Z,974.90
2022-08-16T06:09:08.932Z,974.89
2022-08-16T06:10:07.681Z,974.87
2022-08-16T06:11:10.358Z,974.86
2022-08-16T06:12:07.671Z,974.85
2022-08-16T06:13:07.622Z,974.83
2022-08-16T06:14:07.632Z,974.88
2022-08-16T06:15:09.892Z,974.85
2022-08-16T06:16:07.614Z,974.90
2022-08-16T06:17:07.605Z,974.86
2022-08-16T06:18:07.603Z,974.84
2022-08-16T06:19:07.652Z,974.86
2022-08-16T06:20:07.573Z,974.83
2022-08-16T06:21:07.543Z,974.85
2022-08-16T06:22:07.563Z,974.86
2022-08-16T06:23:16.805Z,974.85
2022-08-16T06:24:53.904Z,974.84
2022-08-16T06:25:08.493Z,974.81
2022-08-16T06:26:07.959Z,974.86
2022-08-16T06:27:07.473Z,974.83
2022-08-16T06:28:08.462Z,974.82
2022-08-16T06:29:07.680Z,974.85
2022-08-16T06:30:07.453Z,974.89
2022-08-16T06:31:07.431Z,974.85
2022-08-16T06:32:07.433Z,974.85
2022-08-16T06:33:08.337Z,974.83
2022-08-16T06:34:31.652Z,974.84
2022-08-16T06:35:08.383Z,974.81
2022-08-16T06:36:08.325Z,974.80
2022-08-16T06:37:07.411Z,974.78
2022-08-16T06:38:07.373Z,974.79
2022-08-16T06:39:09.542Z,974.75
2022-08-16T06:40:12.634Z,974.71
2022-08-16T06:41:13.624Z,974.72
2022-08-16T06:42:08.314Z,974.75
2022-08-16T06:43:07.303Z,974.74
2022-08-16T06:44:07.308Z,974.74
2022-08-16T06:45:08.273Z,974.77
2022-08-16T06:46:09.789Z,974.74
2022-08-16T06:47:07.262Z,974.74
2022-08-16T06:48:07.264Z,974.77
2022-08-16T06:49:07.235Z,974.76
2022-08-16T06:50:07.235Z,974.76
2022-08-16T06:51:07.214Z,974.78
2022-08-16T06:52:07.205Z,974.80
2022-08-16T06:53:09.290Z,974.81
2022-08-16T06:54:07.204Z,974.82
2022-08-16T06:55:08.162Z,974.80
2022-08-16T06:56:14.283Z,974.79
2022-08-16T06:57:11.812Z,974.81
2022-08-16T06:58:08.923Z,974.82
2022-08-16T06:59:08.983Z,974.80
2022-08-16T07:00:13.027Z,974.83
2022-08-16T07:01:09.871Z,974.79
2022-08-16T07:02:08.151Z,974.84
2022-08-16T07:03:26.779Z,974.78
2022-08-16T07:04:10.977Z,974.83
2022-08-16T07:05:14.934Z,974.82
2022-08-16T07:06:08.055Z,974.83
2022-08-16T07:07:09.777Z,974.84
2022-08-16T07:08:07.087Z,974.90
2022-08-16T07:09:09.513Z,974.88
2022-08-16T07:10:08.789Z,974.88
2022-08-16T07:11:06.975Z,974.88
2022-08-16T07:12:07.008Z,974.91
2022-08-16T07:13:08.598Z,974.94
2022-08-16T07:14:25.318Z,974.94
2022-08-16T07:15:08.496Z,974.93
2022-08-16T07:16:07.936Z,974.94
2022-08-16T07:17:08.200Z,974.97
2022-08-16T07:18:06.906Z,974.87
2022-08-16T07:19:06.891Z,974.83
2022-08-16T07:20:34.924Z,974.84
2022-08-16T07:21:07.869Z,974.82
2022-08-16T07:22:06.868Z,974.89
2022-08-16T07:23:13.215Z,974.85
2022-08-16T07:24:07.846Z,974.90
2022-08-16T07:25:06.823Z,974.82
2022-08-16T07:26:06.824Z,974.85
2022-08-16T07:27:08.583Z,974.80
2022-08-16T07:28:11.815Z,974.84
2022-08-16T07:29:06.813Z,974.83
2022-08-16T07:30:45.729Z,974.82
2022-08-16T07:31:13.072Z,974.85
2022-08-16T07:32:07.839Z,974.85
2022-08-16T07:33:07.020Z,974.90
2022-08-16T07:34:10.147Z,974.89
2022-08-16T07:35:06.707Z,974.90
2022-08-16T07:36:06.707Z,974.89
2022-08-16T07:37:06.694Z,974.85
2022-08-16T07:38:06.687Z,974.84
2022-08-16T07:39:06.675Z,974.79
2022-08-16T07:40:11.027Z,974.82
2022-08-16T07:41:09.568Z,974.84
2022-08-16T07:42:06.961Z,974.86
2022-08-16T07:43:06.625Z,974.91
2022-08-16T07:44:16.149Z,974.91
2022-08-16T07:45:10.134Z,974.92
2022-08-16T07:46:06.615Z,974.88
2022-08-16T07:47:07.567Z,974.89
2022-08-16T07:48:11.685Z,974.91
2022-08-16T07:49:11.477Z,974.91
2022-08-16T07:50:07.802Z,974.89
2022-08-16T07:51:09.229Z,974.89
2022-08-16T07:52:18.618Z,974.95
2022-08-16T07:53:07.538Z,974.86
2022-08-16T07:54:09.950Z,974.89
2022-08-16T07:55:06.489Z,974.93
2022-08-16T07:56:07.178Z,974.96
2022-08-16T07:57:06.489Z,974.93
2022-08-16T07:58:07.504Z,974.96
2022-08-16T07:59:07.439Z,975.03
2022-08-16T08:00:06.449Z,974.99
2022-08-16T08:01:10.330Z,975.00
2022-08-16T08:02:06.440Z,975.02
2022-08-16T08:03:08.141Z,975.03
2022-08-16T08:04:06.400Z,975.04
2022-08-16T08:05:07.370Z,975.03
2022-08-16T08:06:06.530Z,975.06
2022-08-16T08:07:08.955Z,975.03
2022-08-16T08:08:11.487Z,975.04
2022-08-16T08:09:07.331Z,975.04
2022-08-16T08:10:06.453Z,975.01
2022-08-16T08:11:09.202Z,975.01
2022-08-16T08:12:06.350Z,975.02
2022-08-16T08:13:06.360Z,975.03
2022-08-16T08:14:06.600Z,975.03
2022-08-16T08:15:09.766Z,975.06
2022-08-16T08:16:06.269Z,975.05
2022-08-16T08:17:06.277Z,975.05
2022-08-16T08:18:30.042Z,975.02
2022-08-16T08:19:07.245Z,975.04
2022-08-16T08:20:06.235Z,975.07
2022-08-16T08:21:06.201Z,975.05
2022-08-16T08:22:06.487Z,975.09
2022-08-16T08:23:07.084Z,975.07
2022-08-16T08:24:09.365Z,975.09
2022-08-16T08:25:06.161Z,975.06
2022-08-16T08:26:09.892Z,975.09
2022-08-16T08:27:07.161Z,975.12
2022-08-16T08:28:06.176Z,975.08
2022-08-16T08:29:07.112Z,975.11
2022-08-16T08:30:09.180Z,975.07
2022-08-16T08:31:07.102Z,975.09
2022-08-16T08:32:59.992Z,975.10
2022-08-16T08:33:07.343Z,975.07
2022-08-16T08:34:06.090Z,975.06
2022-08-16T08:35:06.062Z,975.09
2022-08-16T08:36:06.054Z,975.13
2022-08-16T08:37:06.034Z,975.13
2022-08-16T08:38:06.247Z,975.11
2022-08-16T08:39:13.138Z,975.12
2022-08-16T08:40:07.060Z,975.18
2022-08-16T08:41:05.984Z,975.19
2022-08-16T08:42:05.993Z,975.13
2022-08-16T08:43:12.480Z,975.16
2022-08-16T08:44:28.442Z,975.07
2022-08-16T08:45:06.936Z,975.14
2022-08-16T08:46:05.947Z,975.10
2022-08-16T08:47:07.933Z,975.10
2022-08-16T08:48:06.665Z,975.15
2022-08-16T08:49:06.654Z,975.17
2022-08-16T08:50:06.698Z,975.13
2022-08-16T08:51:08.919Z,975.12
2022-08-16T08:52:08.129Z,975.11
2022-08-16T08:53:06.430Z,975.12
2022-08-16T08:54:06.865Z,975.17
2022-08-16T08:55:10.255Z,975.14
2022-08-16T08:56:23.039Z,975.14
2022-08-16T08:57:06.814Z,975.18
2022-08-16T08:58:06.065Z,975.17
2022-08-16T08:59:13.489Z,975.17
2022-08-16T09:00:12.935Z,975.16
2022-08-16T09:01:07.405Z,975.17
2022-08-16T09:02:06.575Z,975.14
2022-08-16T09:03:07.986Z,975.14
2022-08-16T09:04:06.692Z,975.11
2022-08-16T09:05:15.519Z,975.08
2022-08-16T09:06:06.764Z,975.10
2022-08-16T09:07:05.806Z,975.08
2022-08-16T09:08:06.526Z,975.06
2022-08-16T09:09:06.414Z,975.11
2022-08-16T09:10:06.570Z,975.08
2022-08-16T09:11:07.408Z,975.09
2022-08-16T09:12:06.759Z,975.10
2022-08-16T09:13:05.746Z,975.13
2022-08-16T09:14:05.626Z,975.15
2022-08-16T09:15:05.627Z,975.11
2022-08-16T09:16:05.599Z,975.14
2022-08-16T09:17:21.619Z,975.12
2022-08-16T09:18:26.645Z,975.13
2022-08-16T09:20:05.997Z,975.13
2022-08-16T09:21:05.597Z,975.17
2022-08-16T09:22:05.527Z,975.12
2022-08-16T09:23:05.567Z,975.10
2022-08-16T09:24:10.039Z,975.15
2022-08-16T09:25:11.247Z,975.11
2022-08-16T09:26:44.667Z,975.09
2022-08-16T09:27:06.496Z,975.13
2022-08-16T09:28:09.392Z,975.14
2022-08-16T09:29:15.961Z,975.15
2022-08-16T09:30:33.867Z,975.13
2022-08-16T09:31:06.449Z,975.13
2022-08-16T09:32:06.953Z,975.14
2022-08-16T09:33:06.711Z,975.13
2022-08-16T09:34:05.401Z,975.09
2022-08-16T09:35:05.419Z,975.14
2022-08-16T09:36:05.393Z,975.13
2022-08-16T09:37:17.660Z,975.17
2022-08-16T09:38:08.508Z,975.18
2022-08-16T09:39:05.359Z,975.20
2022-08-16T09:40:31.705Z,975.20
2022-08-16T09:41:06.339Z,975.19
2022-08-16T09:42:06.309Z,975.15
2022-08-16T09:43:05.664Z,975.13
2022-08-16T09:45:10.780Z,975.18
2022-08-16T09:45:11.103Z,975.19
2022-08-16T09:46:44.737Z,975.21
2022-08-16T09:47:10.299Z,975.20
2022-08-16T09:48:05.250Z,975.19
2022-08-16T09:49:05.264Z,975.16
2022-08-16T09:50:05.280Z,975.17
2022-08-16T09:51:06.310Z,975.21
2022-08-16T09:52:05.221Z,975.16
2022-08-16T09:53:05.210Z,975.21
2022-08-16T09:54:05.193Z,975.21
2022-08-16T09:55:05.190Z,975.17
2022-08-16T09:56:05.170Z,975.15
2022-08-16T09:57:06.165Z,975.16
2022-08-16T09:58:06.141Z,975.18
2022-08-16T09:59:08.219Z,975.17
2022-08-16T10:00:05.201Z,975.16
2022-08-16T10:01:06.132Z,975.16
2022-08-16T10:02:26.011Z,975.14
2022-08-16T10:03:06.159Z,975.12
2022-08-16T10:04:28.956Z,975.11
2022-08-16T10:05:06.856Z,975.14
2022-08-16T10:06:05.803Z,975.13
2022-08-16T10:07:11.878Z,975.10
2022-08-16T10:08:26.484Z,975.04
2022-08-16T10:09:06.838Z,975.07
2022-08-16T10:10:09.781Z,975.06
2022-08-16T10:11:06.722Z,975.04
2022-08-16T10:12:11.293Z,975.06
2022-08-16T10:13:06.925Z,975.04
2022-08-16T10:14:05.804Z,975.05
2022-08-16T10:15:05.710Z,975.07
2022-08-16T10:16:05.815Z,975.08
2022-08-16T10:17:04.980Z,975.07
2022-08-16T10:18:56.745Z,975.07
2022-08-16T10:19:07.584Z,975.10
2022-08-16T10:20:05.046Z,975.15
2022-08-16T10:21:05.249Z,975.14
2022-08-16T10:22:05.599Z,975.15
2022-08-16T10:23:07.129Z,975.11
2022-08-16T10:24:04.995Z,975.11
2022-08-16T10:25:05.773Z,975.11
2022-08-16T10:27:18.287Z,975.11
2022-08-16T10:27:26.453Z,975.10
2022-08-16T10:28:27.519Z,975.11
2022-08-16T10:29:05.875Z,975.14
2022-08-16T10:30:06.933Z,975.10
2022-08-16T10:31:05.847Z,975.05
2022-08-16T10:32:04.855Z,975.08
2022-08-16T10:33:04.875Z,975.12
2022-08-16T10:34:04.758Z,975.11
2022-08-16T10:35:05.847Z,975.13
2022-08-16T10:36:05.006Z,975.08
2022-08-16T10:37:04.773Z,975.11
2022-08-16T10:38:06.834Z,975.15
2022-08-16T10:39:05.718Z,975.10
2022-08-16T10:40:04.785Z,975.13
2022-08-16T10:41:04.770Z,975.11
2022-08-16T10:42:04.810Z,975.13
2022-08-16T10:43:04.668Z,975.17
2022-08-16T10:44:04.739Z,975.20
2022-08-16T10:45:05.794Z,975.13
2022-08-16T10:46:39.069Z,975.16
2022-08-16T10:47:05.688Z,975.13
2022-08-16T10:48:04.925Z,975.13
2022-08-16T10:49:05.918Z,975.10
2022-08-16T10:50:04.598Z,975.14
2022-08-16T10:51:05.445Z,975.18
2022-08-16T10:52:18.009Z,975.14
2022-08-16T10:53:05.760Z,975.21
2022-08-16T10:54:04.975Z,975.23
2022-08-16T10:56:44.211Z,975.19
2022-08-16T10:57:07.547Z,975.21
2022-08-16T10:58:11.463Z,975.20
2022-08-16T11:00:05.477Z,975.16
2022-08-16T11:03:06.483Z,975.11
2022-08-16T11:05:04.817Z,975.13
2022-08-16T11:05:08.019Z,975.20
2022-08-16T11:06:06.317Z,975.15
2022-08-16T11:07:08.012Z,975.15
2022-08-16T11:08:05.500Z,975.11
2022-08-16T11:11:01.912Z,975.14
2022-08-16T11:11:12.951Z,975.15
2022-08-16T11:12:14.206Z,975.18
2022-08-16T11:14:11.098Z,975.17
2022-08-16T11:15:13.512Z,975.16
2022-08-16T11:17:10.711Z,975.17
2022-08-16T11:19:12.564Z,975.16
2022-08-16T11:21:05.262Z,975.14
2022-08-16T11:22:23.074Z,975.15
2022-08-16T11:23:05.240Z,975.16
2022-08-16T11:24:04.224Z,975.16
2022-08-16T11:25:16.195Z,975.16
2022-08-16T11:26:22.727Z,975.18
2022-08-16T11:27:23.998Z,975.20
2022-08-16T11:28:05.163Z,975.18
2022-08-16T11:29:19.566Z,975.16
2022-08-16T11:30:05.163Z,975.17
2022-08-16T11:31:04.153Z,975.17
2022-08-16T11:32:04.123Z,975.20
2022-08-16T11:33:04.143Z,975.15
2022-08-16T11:34:04.106Z,975.11
2022-08-16T11:35:13.997Z,975.12
2022-08-16T11:37:05.084Z,975.11
2022-08-16T11:38:06.126Z,975.13
2022-08-16T11:39:05.572Z,975.13
2022-08-16T11:40:05.097Z,975.18
2022-08-16T11:41:04.046Z,975.14
2022-08-16T11:42:04.015Z,975.17
2022-08-16T11:43:05.058Z,975.18
2022-08-16T11:44:03.995Z,975.16
2022-08-16T11:45:04.004Z,975.18
2022-08-16T11:46:43.723Z,975.22
2022-08-16T11:47:06.925Z,975.16
2022-08-16T11:48:03.987Z,975.14
2022-08-16T11:49:04.036Z,975.11
2022-08-16T11:50:04.637Z,975.10
2022-08-16T11:51:03.935Z,975.12
2022-08-16T11:52:03.935Z,975.07
2022-08-16T11:53:04.068Z,975.09
2022-08-16T11:54:05.089Z,975.12
2022-08-16T11:55:05.013Z,975.11
2022-08-16T11:56:03.866Z,975.07
2022-08-16T11:57:03.877Z,975.09
2022-08-16T11:58:04.917Z,975.12
2022-08-16T11:59:03.856Z,975.14
2022-08-16T12:00:03.835Z,975.12
2022-08-16T12:01:03.837Z,975.11
2022-08-16T12:02:04.342Z,975.16
2022-08-16T12:03:04.808Z,975.19
2022-08-16T12:04:03.804Z,975.13
2022-08-16T12:05:03.798Z,975.14
2022-08-16T12:06:03.770Z,975.19
2022-08-16T12:07:03.885Z,975.14
2022-08-16T12:08:05.402Z,975.16
2022-08-16T12:09:03.748Z,975.13
2022-08-16T12:10:03.719Z,975.10
2022-08-16T12:11:03.729Z,975.10
2022-08-16T12:12:03.699Z,975.12
2022-08-16T12:13:03.708Z,975.15
2022-08-16T12:14:05.008Z,975.13
2022-08-16T12:15:03.689Z,975.09
2022-08-16T12:16:04.470Z,975.07
2022-08-16T12:17:03.668Z,975.11
2022-08-16T12:18:03.675Z,975.10
2022-08-16T12:19:04.317Z,975.12
2022-08-16T12:20:04.757Z,975.06
2022-08-16T12:21:03.821Z,975.04
2022-08-16T12:22:05.839Z,975.05
2022-08-16T12:23:04.611Z,975.03
2022-08-16T12:24:03.602Z,975.04
2022-08-16T12:25:03.591Z,975.05
2022-08-16T12:26:05.925Z,975.06
2022-08-16T12:27:04.561Z,975.07
2022-08-16T12:28:03.541Z,975.05
2022-08-16T12:29:03.592Z,975.08
2022-08-16T12:30:03.563Z,975.03
2022-08-16T12:31:03.522Z,975.05
2022-08-16T12:32:35.609Z,975.00
2022-08-16T12:33:04.502Z,975.03
2022-08-16T12:34:03.483Z,975.06
2022-08-16T12:35:03.474Z,975.06
2022-08-16T12:36:03.463Z,975.04
2022-08-16T12:37:07.711Z,975.09
2022-08-16T12:38:38.033Z,975.09
2022-08-16T12:39:04.436Z,975.09